Data for 11/12/2016

Time Sea-Level Adjusted Pressure Absolute Pressure Temperature Relative Humidity Dew Point   
(mb) (inHg) (mb) (inHg) (C) (F) (%) (C) (F)
00:05 1021 30.15 850 25.1 8 46.3 50 -1.9 28.6
00:10 1021 30.15 850 25.1 7.9 46.2 50 -2 28.4
00:15 1021 30.15 850 25.1 7.8 46 50 -2 28.4
00:20 1021 30.15 850 25.1 7.7 45.9 50 -2.1 28.2
00:25 1021 30.15 850 25.1 8 46.4 49 -2.1 28.1
00:30 1021 30.15 850 25.1 8.2 46.8 48 -2.2 28
00:35 1021 30.15 850 25.1 8.3 47 48 -2.1 28.2
00:40 1021 30.15 850 25.1 8.2 46.7 49 -2 28.4
00:45 1021 30.15 850 25.1 8.1 46.5 48 -2.3 27.9
00:50 1021 30.15 850 25.1 8.4 47.1 47 -2.3 27.8
00:55 1021 30.15 850 25.1 8.4 47.2 47 -2.1 28.1
01:00 1021 30.15 850 25.1 8.3 46.9 48 -2.1 28.2
01:05 1021 30.15 850 25.1 8 46.4 49 -2.1 28.2
01:10 1021 30.15 850 25.1 8.1 46.6 47 -2.4 27.7
01:15 1021 30.15 850 25.1 8.2 46.8 47 -2.4 27.6
01:20 1021 30.15 850 25.1 8.4 47.1 46 -2.6 27.3
01:25 1021 30.15 850 25.1 8.6 47.5 46 -2.4 27.6
01:30 1021 30.15 850 25.1 8.6 47.4 45 -2.8 27
01:35 1021 30.15 850 25.1 8.6 47.5 43 -3.2 26.2
01:40 1021 30.15 850 25.1 8.8 47.8 43 -3 26.6
01:45 1021 30.15 850 25.1 8.7 47.7 43 -3.2 26.3
01:50 1021 30.15 850 25.1 9 48.2 43 -3 26.6
01:55 1021 30.15 850 25.1 9.3 48.7 42 -2.8 26.9
02:00 1021 30.15 850 25.1 9 48.2 42 -3.1 26.4
02:05 1021 30.15 850 25.1 8.7 47.6 43 -3.1 26.4
02:10 1021 30.15 850 25.1 8.3 47 44 -3.2 26.3
02:15 1021 30.15 850 25.1 8.9 47.9 43 -3 26.6
02:20 1021 30.15 850 25.1 8.2 46.7 47 -2.5 27.5
02:25 1021 30.15 850 25.1 7.5 45.4 48 -2.9 26.8
02:30 1021 30.15 850 25.1 7 44.7 48 -3.1 26.3
02:35 1021 30.15 850 25.1 6.7 44 49 -3.2 26.2
02:40 1021 30.15 850 25.1 7.4 45.2 45 -3.8 25.2
02:45 1021 30.15 850 25.1 7.6 45.7 47 -3 26.6
02:50 1021 30.15 850 25.1 7.7 45.9 47 -2.9 26.7
02:55 1021 30.15 850 25.1 7.9 46.1 47 -2.8 26.9
03:00 1021 30.15 850 25.1 7.4 45.4 49 -2.7 27.2
03:05 1021 30.15 850 25.1 7.3 45.2 48 -2.8 26.9
03:10 1021 30.15 850 25.1 7.4 45.3 48 -2.9 26.7
03:15 1021 30.15 850 25.1 7.3 45.2 48 -2.9 26.7
03:20 1021 30.15 850 25.1 7.4 45.3 47 -3.2 26.3
03:25 1021 30.15 850 25.1 7.9 46.2 45 -3.3 26.1
03:30 1021 30.15 850 25.1 8.3 47 45 -2.8 27
03:35 1021 30.15 850 25.1 8 46.3 47 -2.7 27.1
03:40 1021 30.15 850 25.1 8.2 46.7 45 -3.2 26.3
03:45 1021 30.15 850 25.1 8.3 46.9 45 -2.8 27
03:50 1021 30.15 850 25.1 7.9 46.3 46 -2.9 26.7
03:55 1020 30.12 850 25.1 8.1 46.5 46 -3 26.7
04:00 1020 30.12 850 25.1 7.9 46.2 47 -2.7 27.1
04:05 1020 30.12 850 25.1 7.5 45.5 48 -2.9 26.7
04:10 1020 30.12 850 25.1 6.9 44.5 47 -3.5 25.8
04:15 1020 30.12 850 25.1 7 44.7 47 -3.6 25.5
04:20 1020 30.12 850 25.1 7.5 45.5 44 -3.9 25.1
04:25 1020 30.12 850 25.1 7.7 45.8 46 -3.2 26.3
04:30 1020 30.12 850 25.1 7.6 45.6 45 -3.6 25.6
04:35 1020 30.12 850 25.1 7.1 44.8 48 -3.1 26.5
04:40 1020 30.12 850 25.1 5.9 42.5 53 -2.9 26.8
04:45 1020 30.12 850 25.1 5.1 41.2 55 -3.2 26.3
04:50 1020 30.12 849 25.07 5.4 41.8 53 -3.3 26
04:55 1020 30.12 849 25.07 5.7 42.3 52 -3.2 26.2
05:00 1020 30.12 849 25.07 6.5 43.8 48 -3.8 25.2
05:05 1020 30.12 849 25.07 6.9 44.4 50 -2.9 26.8
05:10 1020 30.12 849 25.07 6.1 43 50 -3.5 25.7
05:15 1020 30.12 849 25.07 7.2 44.9 46 -3.6 25.4
05:20 1020 30.12 849 25.07 7.9 46.2 46 -3.1 26.4
05:25 1020 30.12 849 25.07 7.6 45.7 48 -2.7 27.1
05:30 1020 30.12 849 25.07 6.9 44.4 50 -2.9 26.8
05:35 1020 30.12 849 25.07 6.5 43.6 51 -2.9 26.8
05:40 1020 30.12 849 25.07 6.1 43 52 -3 26.6
05:45 1020 30.12 849 25.07 6.3 43.3 51 -3.2 26.2
05:50 1020 30.12 849 25.07 6.6 43.9 50 -3.1 26.4
05:55 1020 30.12 849 25.07 6.7 44 50 -3 26.5
06:00 1020 30.12 849 25.07 6.6 43.8 50 -3 26.6
06:05 1020 30.12 849 25.07 6.5 43.7 50 -3.2 26.2
06:10 1020 30.12 849 25.07 6.5 43.7 50 -3.2 26.3
06:15 1020 30.12 849 25.07 6.6 43.8 50 -3.2 26.2
06:20 1020 30.12 849 25.07 6.7 44 49 -3.2 26.3
06:25 1020 30.12 849 25.07 6.8 44.2 49 -3.1 26.4
06:30 1020 30.12 849 25.07 6.5 43.8 51 -2.9 26.7
06:35 1020 30.12 849 25.07 6.4 43.5 50 -3.3 26
06:40 1020 30.12 850 25.1 6.4 43.5 50 -3.3 26
06:45 1020 30.12 849 25.07 7.1 44.7 47 -3.3 26
06:50 1020 30.12 849 25.07 7.4 45.3 47 -3 26.5
06:55 1020 30.12 849 25.07 6.9 44.4 49 -3 26.7
07:00 1020 30.12 849 25.07 6.7 44 51 -2.8 27
07:05 1020 30.12 849 25.07 6.3 43.4 51 -3.1 26.4
07:10 1020 30.12 849 25.07 6 42.7 53 -2.9 26.7
07:15 1020 30.12 849 25.07 5.9 42.7 53 -2.8 26.9
07:20 1020 30.12 849 25.07 5.9 42.7 52 -3.1 26.4
07:25 1020 30.12 849 25.07 5.9 42.7 52 -3.1 26.5
07:30 1020 30.12 849 25.07 6 42.9 52 -3 26.6
07:35 1020 30.12 849 25.07 6.1 42.9 52 -3.1 26.4
07:40 1020 30.12 849 25.07 6.3 43.4 51 -3.1 26.4
07:45 1020 30.12 849 25.07 6.2 43.2 52 -2.9 26.7
07:50 1020 30.12 849 25.07 5.8 42.4 52 -3.2 26.2
07:55 1020 30.12 849 25.07 5.5 41.9 54 -3 26.6
08:00 1020 30.12 849 25.07 5.8 42.4 51 -3.6 25.5
08:05 1020 30.12 849 25.07 6 42.8 53 -2.9 26.7
08:10 1020 30.12 849 25.07 5.6 42 55 -2.9 26.9
08:15 1020 30.12 849 25.07 5.1 41.1 56 -3 26.6
08:20 1020 30.12 849 25.07 5.2 41.4 54 -3.3 26
08:25 1020 30.12 849 25.07 5.4 41.7 55 -2.9 26.8
08:30 1020 30.12 849 25.07 4.8 40.7 56 -3.1 26.3
08:35 1020 30.12 849 25.07 5.1 41.1 56 -3 26.5
08:40 1020 30.12 849 25.07 5.2 41.4 54 -3.3 26.1
08:45 1020 30.12 849 25.07 5.4 41.8 54 -3 26.5
08:50 1020 30.12 849 25.07 5.4 41.7 54 -3.1 26.4
08:55 1020 30.12 849 25.07 5.3 41.5 55 -3.1 26.5
09:00 1020 30.12 849 25.07 5.4 41.8 54 -3.2 26.2
09:05 1020 30.12 850 25.1 5.6 42.2 53 -3.2 26.3
09:10 1020 30.12 850 25.1 5.8 42.4 54 -2.9 26.7
09:15 1020 30.12 850 25.1 6 42.9 52 -3.2 26.3
09:20 1020 30.12 850 25.1 6 42.8 53 -2.9 26.7
09:25 1020 30.12 850 25.1 6 42.9 53 -2.8 26.9
09:30 1020 30.12 849 25.07 6 42.9 53 -2.9 26.7
09:35 1020 30.12 849 25.07 6.1 42.9 53 -2.7 27.2
09:40 1020 30.12 850 25.1 6.3 43.3 52 -2.9 26.8
09:45 1020 30.12 850 25.1 6.8 44.2 50 -2.9 26.8
09:50 1020 30.12 849 25.07 7.3 45.2 48 -2.9 26.7
09:55 1020 30.12 849 25.07 7.8 46 47 -2.7 27.2
10:00 1020 30.12 849 25.07 8.3 46.9 47 -2.5 27.5
10:05 1020 30.12 849 25.07 8.6 47.5 46 -2.5 27.6
10:10 1020 30.12 849 25.07 8.9 47.9 45 -2.5 27.5
10:15 1020 30.12 849 25.07 9.4 48.9 43 -2.6 27.4
10:20 1020 30.12 849 25.07 9.7 49.5 42 -2.4 27.7
10:25 1020 30.12 849 25.07 10.2 50.4 42 -2.2 28.1
10:30 1020 30.12 849 25.07 10.3 50.5 42 -2 28.4
10:35 1020 30.12 849 25.07 10.7 51.3 42 -1.7 29
10:40 1020 30.12 849 25.07 11.2 52.1 40 -2 28.3
10:45 1020 30.12 849 25.07 11.9 53.5 38 -2.1 28.3
10:50 1020 30.12 849 25.07 12.4 54.3 36 -2.1 28.3
10:55 1020 30.12 849 25.07 12.9 55.2 36 -1.8 28.7
11:00 1020 30.12 849 25.07 13 55.5 35 -1.9 28.6
11:05 1020 30.12 849 25.07 12.9 55.2 38 -1 30.2
11:10 1020 30.12 849 25.07 12.9 55.1 37 -1.3 29.7
11:15 1020 30.12 849 25.07 12.8 55 39 -0.7 30.7
11:20 1020 30.12 849 25.07 12.6 54.8 37 -1.5 29.3
11:25 1020 30.12 849 25.07 13.1 55.5 34 -2.4 27.6
11:30 1020 30.12 849 25.07 13.6 56.5 33 -2.3 27.9
11:35 1020 30.12 849 25.07 14.2 57.5 32 -2.1 28.3
11:40 1020 30.12 849 25.07 14.7 58.4 32 -1.8 28.7
11:45 1020 30.12 849 25.07 14.6 58.2 32 -1.9 28.6
11:50 1020 30.12 849 25.07 14.5 58 31 -2.3 27.9
11:55 1020 30.12 849 25.07 14.2 57.6 31 -2.4 27.6
12:00 1020 30.12 849 25.07 15 59 29 -2.8 26.9
12:05 1020 30.12 849 25.07 15.3 59.5 31 -1.5 29.3
12:10 1019 30.09 849 25.07 14.4 58 33 -1.8 28.8
12:15 1019 30.09 849 25.07 14.1 57.4 33 -1.9 28.5
12:20 1019 30.09 848 25.04 14.5 58.2 32 -2.1 28.3
12:25 1019 30.09 848 25.04 15.6 60 29 -2.1 28.2
12:30 1019 30.09 848 25.04 15.5 60 30 -1.8 28.7
12:35 1019 30.09 848 25.04 15.4 59.7 29 -2.5 27.5
12:40 1019 30.09 848 25.04 16.4 61.5 28 -2.1 28.3
12:45 1019 30.09 848 25.04 16 60.7 29 -2.1 28.2
12:50 1019 30.09 848 25.04 16.8 62.2 27 -2.4 27.6
12:55 1019 30.09 848 25.04 16.3 61.4 30 -1.1 30
13:00 1019 30.09 848 25.04 15.9 60.6 29 -2.2 28.1
13:05 1019 30.09 848 25.04 17 62.6 28 -1.6 29.1
13:10 1019 30.09 848 25.04 16.4 61.4 29 -1.6 29.2
13:15 1019 30.09 848 25.04 17.4 63.2 28 -1.4 29.5
13:20 1018 30.06 848 25.04 17.9 64.3 28 -0.8 30.6
13:25 1018 30.06 848 25.04 17.9 64.2 29 -0.1 31.9
13:30 1018 30.06 848 25.04 16.8 62.2 31 -0.5 31.1
13:35 1018 30.06 847 25.01 16.8 62.2 30 -0.8 30.6
13:40 1018 30.06 847 25.01 16.7 62.1 32 0.1 32.2
13:45 1018 30.06 847 25.01 16.1 60.9 31 -1 30.2
13:50 1018 30.06 847 25.01 17.3 63.2 29 -0.8 30.6
13:55 1018 30.06 847 25.01 17.3 63.1 31 -0.1 31.9
14:00 1018 30.06 847 25.01 16.6 61.9 30 -0.9 30.3
14:05 1018 30.06 847 25.01 17 62.5 30 -0.7 30.7
14:10 1018 30.06 847 25.01 17.4 63.4 28 -1 30.2
14:15 1018 30.06 847 25.01 18.1 64.6 27 -1 30.3
14:20 1018 30.06 847 25.01 18.7 65.6 27 -0.7 30.8
14:25 1018 30.06 847 25.01 18.5 65.3 27 -0.7 30.8
14:30 1018 30.06 847 25.01 17.7 63.8 29 -0.6 31
14:35 1018 30.06 847 25.01 16.9 62.5 30 -0.7 30.8
14:40 1018 30.06 847 25.01 16.7 62.1 30 -0.8 30.6
14:45 1018 30.06 847 25.01 16.7 62 31 -0.5 31
14:50 1018 30.06 847 25.01 16.3 61.3 31 -0.8 30.5
14:55 1018 30.06 847 25.01 16.5 61.6 31 -0.5 31
15:00 1018 30.06 847 25.01 16.4 61.6 31 -0.6 30.8
15:05 1018 30.06 847 25.01 16.5 61.7 31 -0.6 30.9
15:10 1017 30.03 847 25.01 16.5 61.7 31 -0.5 31
15:15 1018 30.06 847 25.01 16.4 61.5 32 -0.3 31.4
15:20 1018 30.06 847 25.01 16.3 61.3 32 -0.4 31.3
15:25 1017 30.03 847 25.01 16.6 61.9 31 -0.5 31.1
15:30 1017 30.03 847 25.01 16.4 61.5 32 -0.4 31.2
15:35 1017 30.03 847 25.01 16.3 61.3 32 -0.5 31
15:40 1017 30.03 847 25.01 16.3 61.3 32 -0.3 31.4
15:45 1017 30.03 847 25.01 16.3 61.3 32 -0.4 31.3
15:50 1017 30.03 847 25.01 16.3 61.3 32 -0.3 31.5
15:55 1017 30.03 847 25.01 16.3 61.4 31 -0.6 30.9
16:00 1017 30.03 847 25.01 16.4 61.5 31 -0.6 30.9
16:05 1017 30.03 847 25.01 16.3 61.4 31 -0.5 31.1
16:10 1017 30.03 847 25.01 16.3 61.4 31 -0.7 30.8
16:15 1018 30.06 847 25.01 16.3 61.4 31 -0.6 30.9
16:20 1018 30.06 847 25.01 16.4 61.5 31 -0.6 31
16:25 1018 30.06 847 25.01 16.3 61.4 30 -1.3 29.6
16:30 1018 30.06 847 25.01 16.4 61.4 28 -2.1 28.3
16:35 1018 30.06 847 25.01 16.5 61.6 28 -2 28.4
16:40 1018 30.06 847 25.01 16.4 61.6 28 -1.8 28.7
16:45 1018 30.06 847 25.01 16.4 61.4 29 -1.6 29.2
16:50 1018 30.06 847 25.01 16.2 61.2 30 -1.4 29.5
16:55 1018 30.06 847 25.01 16.1 60.9 30 -1.2 29.8
17:00 1018 30.06 847 25.01 15.9 60.7 31 -0.9 30.3
17:05 1018 30.06 847 25.01 15.8 60.4 31 -1.1 30.1
17:10 1018 30.06 847 25.01 15.7 60.2 32 -1 30.3
17:15 1018 30.06 847 25.01 15.6 60 32 -0.8 30.6
17:20 1018 30.06 847 25.01 15.5 59.8 33 -0.8 30.6
17:25 1018 30.06 847 25.01 15.4 59.6 33 -0.8 30.6
17:30 1018 30.06 847 25.01 15.4 59.7 32 -1.1 30.1
17:35 1018 30.06 847 25.01 15.7 60.2 31 -1.3 29.7
17:40 1018 30.06 847 25.01 15.8 60.4 31 -1.1 30
17:45 1018 30.06 847 25.01 15.7 60.3 31 -1.1 30.1
17:50 1018 30.06 847 25.01 15.6 60 32 -1 30.2
17:55 1018 30.06 847 25.01 15.4 59.7 32 -1.1 30
18:00 1018 30.06 847 25.01 15.3 59.6 32 -1.3 29.7
18:05 1018 30.06 847 25.01 15.3 59.6 32 -1.1 30.1
18:10 1018 30.06 847 25.01 15.2 59.4 33 -1 30.1
18:15 1018 30.06 847 25.01 15.1 59.2 33 -1.1 30
18:20 1018 30.06 847 25.01 15 59 33 -0.9 30.4
18:25 1018 30.06 847 25.01 14.9 58.8 34 -0.9 30.4
18:30 1018 30.06 847 25.01 14.8 58.6 33 -1.1 30
18:35 1018 30.06 847 25.01 14.7 58.4 33 -1.2 29.9
18:40 1018 30.06 847 25.01 14.5 58.2 34 -1.2 29.8
18:45 1018 30.06 847 25.01 14.4 57.8 34 -1.2 29.9
18:50 1018 30.06 847 25.01 14.2 57.6 35 -1 30.2
18:55 1018 30.06 847 25.01 14.1 57.3 35 -1.1 30.1
19:00 1018 30.06 847 25.01 14 57.2 35 -1.3 29.7
19:05 1018 30.06 847 25.01 14.2 57.5 34 -1.5 29.3
19:10 1018 30.06 847 25.01 14.4 57.8 34 -1.3 29.7
19:15 1018 30.06 847 25.01 14.3 57.7 34 -1.3 29.6
19:20 1018 30.06 847 25.01 14.2 57.6 34 -1.3 29.6
19:25 1018 30.06 847 25.01 14.3 57.7 34 -1.4 29.5
19:30 1018 30.06 847 25.01 14 57.3 35 -1.1 30
19:35 1018 30.06 847 25.01 13.8 56.9 34 -1.6 29.1
19:40 1018 30.06 847 25.01 13.8 56.8 35 -1.2 29.8
19:45 1018 30.06 847 25.01 13.6 56.5 35 -1.6 29
19:50 1018 30.06 847 25.01 13.6 56.6 35 -1.6 29.1
19:55 1018 30.06 847 25.01 13.5 56.3 34 -1.8 28.7
20:00 1018 30.06 847 25.01 13.3 55.9 35 -1.7 29
20:05 1018 30.06 847 25.01 13 55.5 36 -1.8 28.8
20:10 1018 30.06 847 25.01 12.9 55.3 35 -1.9 28.6
20:15 1018 30.06 847 25.01 13 55.4 35 -2 28.4
20:20 1018 30.06 847 25.01 13 55.3 36 -1.7 28.9
20:25 1018 30.06 847 25.01 12.3 54.2 39 -1.2 29.8
20:30 1018 30.06 847 25.01 11.7 53.1 40 -1.5 29.4
20:35 1018 30.06 847 25.01 11.6 52.9 39 -1.7 28.9
20:40 1018 30.06 847 25.01 11.8 53.2 39 -1.8 28.8
20:45 1018 30.06 847 25.01 12.1 53.7 38 -1.7 29
20:50 1018 30.06 847 25.01 12.1 53.7 38 -1.8 28.8
20:55 1018 30.06 847 25.01 12.1 53.7 38 -1.6 29
21:00 1018 30.06 847 25.01 12 53.7 38 -1.7 28.9
21:05 1018 30.06 847 25.01 12.1 53.7 38 -1.9 28.6
21:10 1018 30.06 848 25.04 12.1 53.8 38 -1.7 28.9
21:15 1018 30.06 848 25.04 11.9 53.3 40 -1.1 30.1
21:20 1018 30.06 848 25.04 11.4 52.4 42 -1 30.1
21:25 1018 30.06 848 25.04 11.1 51.9 44 -0.6 31
21:30 1018 30.06 848 25.04 10.8 51.5 44 -0.9 30.4
21:35 1018 30.06 848 25.04 10.6 51.1 45 -0.8 30.6
21:40 1019 30.09 848 25.04 10.7 51.2 44 -0.9 30.4
21:45 1019 30.09 848 25.04 10.9 51.6 44 -0.7 30.7
21:50 1019 30.09 848 25.04 11.2 52.1 44 -0.7 30.7
21:55 1019 30.09 848 25.04 11.3 52.3 43 -0.8 30.5
22:00 1019 30.09 848 25.04 11.3 52.3 43 -0.7 30.7
22:05 1019 30.09 848 25.04 11.3 52.4 44 -0.5 31
22:10 1019 30.09 848 25.04 11.1 52.1 44 -0.5 31.2
22:15 1019 30.09 848 25.04 11 51.7 47 -0 32
22:20 1019 30.09 848 25.04 10.8 51.4 45 -0.7 30.8
22:25 1019 30.09 848 25.04 10.7 51.3 44 -0.8 30.5
22:30 1019 30.09 848 25.04 10.8 51.5 44 -1 30.2
22:35 1019 30.09 848 25.04 11 51.8 43 -1 30.3
22:40 1019 30.09 848 25.04 10.8 51.5 45 -0.7 30.8
22:45 1019 30.09 848 25.04 10.5 50.9 45 -0.9 30.3
22:50 1019 30.09 848 25.04 10.6 51 44 -1.3 29.7
22:55 1019 30.09 848 25.04 10.7 51.3 42 -1.7 29
23:00 1019 30.09 848 25.04 10.9 51.7 42 -1.4 29.5
23:05 1019 30.09 848 25.04 10.7 51.3 43 -1.4 29.5
23:10 1019 30.09 848 25.04 10.5 50.9 41 -2.1 28.3
23:15 1019 30.09 848 25.04 10.9 51.6 39 -2.5 27.5
23:20 1019 30.09 848 25.04 11.2 52.2 39 -2.3 27.8
23:25 1019 30.09 848 25.04 11.3 52.4 37 -2.6 27.3
23:30 1019 30.09 849 25.07 11.4 52.5 37 -2.8 27
23:35 1019 30.09 849 25.07 11.3 52.4 37 -2.8 27
23:40 1019 30.09 849 25.07 11.2 52.2 37 -2.8 26.9
23:45 1020 30.12 849 25.07 11 51.8 37 -2.9 26.7
23:50 1020 30.12 849 25.07 10.9 51.5 37 -3.2 26.3
23:55 1020 30.12 849 25.07 10.8 51.4 37 -3.1 26.4
24:00 1020 30.12 849 25.07 10.6 51 37 -3.3 26